sensor_id;sensor_type;location;lat;lon;timestamp;pressure;altitude;pressure_sealevel;temperature
70969;BMP280;58630;43.022;25.100;2022-08-16T00:00:06;98732.84;;;25.34
70969;BMP280;58630;43.022;25.100;2022-08-16T00:02:32;98726.38;;;25.31
70969;BMP280;58630;43.022;25.100;2022-08-16T00:04:58;98725.25;;;25.29
70969;BMP280;58630;43.022;25.100;2022-08-16T00:07:23;98732.44;;;25.28
70969;BMP280;58630;43.022;25.100;2022-08-16T00:09:49;98729.41;;;25.30
70969;BMP280;58630;43.022;25.100;2022-08-16T00:12:14;98733.94;;;25.29
70969;BMP280;58630;43.022;25.100;2022-08-16T00:14:39;98731.69;;;25.28
70969;BMP280;58630;43.022;25.100;2022-08-16T00:17:05;98735.47;;;25.27
70969;BMP280;58630;43.022;25.100;2022-08-16T00:19:31;98739.25;;;25.19
70969;BMP280;58630;43.022;25.100;2022-08-16T00:21:58;98743.06;;;25.25
70969;BMP280;58630;43.022;25.100;2022-08-16T00:24:24;98741.91;;;25.26
70969;BMP280;58630;43.022;25.100;2022-08-16T00:26:50;98746.84;;;25.24
70969;BMP280;58630;43.022;25.100;2022-08-16T00:29:16;98743.06;;;25.25
70969;BMP280;58630;43.022;25.100;2022-08-16T00:31:41;98751.44;;;25.27
70969;BMP280;58630;43.022;25.100;2022-08-16T00:34:07;98744.56;;;25.26
70969;BMP280;58630;43.022;25.100;2022-08-16T00:36:32;98755.97;;;25.26
70969;BMP280;58630;43.022;25.100;2022-08-16T00:38:58;98752.56;;;25.26
70969;BMP280;58630;43.022;25.100;2022-08-16T00:41:23;98758.63;;;25.23
70969;BMP280;58630;43.022;25.100;2022-08-16T00:43:49;98752.59;;;25.23
70969;BMP280;58630;43.022;25.100;2022-08-16T00:48:44;98756.38;;;25.22
70969;BMP280;58630;43.022;25.100;2022-08-16T00:51:11;98755.59;;;25.21
70969;BMP280;58630;43.022;25.100;2022-08-16T00:53:36;98760.13;;;25.17
70969;BMP280;58630;43.022;25.100;2022-08-16T00:56:04;98760.84;;;25.14
70969;BMP280;58630;43.022;25.100;2022-08-16T00:58:30;98761.97;;;25.13
70969;BMP280;58630;43.022;25.100;2022-08-16T01:00:56;98761.97;;;25.13
70969;BMP280;58630;43.022;25.100;2022-08-16T01:03:25;98773.78;;;25.12
70969;BMP280;58630;43.022;25.100;2022-08-16T01:05:51;98769.22;;;25.09
70969;BMP280;58630;43.022;25.100;2022-08-16T01:08:18;98770.34;;;25.08
70969;BMP280;58630;43.022;25.100;2022-08-16T01:10:44;98768.78;;;25.04
70969;BMP280;58630;43.022;25.100;2022-08-16T01:13:11;98770.31;;;25.05
70969;BMP280;58630;43.022;25.100;2022-08-16T01:15:38;98770.69;;;25.03
70969;BMP280;58630;43.022;25.100;2022-08-16T01:18:04;98782.47;;;25.02
70969;BMP280;58630;43.022;25.100;2022-08-16T01:20:31;98774.06;;;24.97
70969;BMP280;58630;43.022;25.100;2022-08-16T01:23:01;98779.78;;;24.95
70969;BMP280;58630;43.022;25.100;2022-08-16T01:25:48;98783.59;;;25.01
70969;BMP280;58630;43.022;25.100;2022-08-16T01:28:15;98779.78;;;24.99
70969;BMP280;58630;43.022;25.100;2022-08-16T01:30:42;98778.66;;;25.03
70969;BMP280;58630;43.022;25.100;2022-08-16T01:33:08;98777.16;;;25.02
70969;BMP280;58630;43.022;25.100;2022-08-16T01:38:12;98765.78;;;25.05
70969;BMP280;58630;43.022;25.100;2022-08-16T01:40:38;98761.97;;;24.99
70969;BMP280;58630;43.022;25.100;2022-08-16T01:43:03;98764.63;;;24.99
70969;BMP280;58630;43.022;25.100;2022-08-16T01:45:29;98762.28;;;24.98
70969;BMP280;58630;43.022;25.100;2022-08-16T01:47:54;98758.09;;;24.97
70969;BMP280;58630;43.022;25.100;2022-08-16T01:50:19;98761.16;;;24.95
70969;BMP280;58630;43.022;25.100;2022-08-16T01:52:45;98763.41;;;24.93
70969;BMP280;58630;43.022;25.100;2022-08-16T01:55:10;98762.69;;;24.93
70969;BMP280;58630;43.022;25.100;2022-08-16T01:57:35;98764.94;;;24.94
70969;BMP280;58630;43.022;25.100;2022-08-16T02:00:02;98761.13;;;24.88
70969;BMP280;58630;43.022;25.100;2022-08-16T02:02:28;98768.34;;;24.88
70969;BMP280;58630;43.022;25.100;2022-08-16T02:04:53;98760.72;;;24.86
70969;BMP280;58630;43.022;25.100;2022-08-16T02:07:19;98758.78;;;24.83
70969;BMP280;58630;43.022;25.100;2022-08-16T02:09:46;98761.84;;;24.82
70969;BMP280;58630;43.022;25.100;2022-08-16T02:12:11;98761.06;;;24.81
70969;BMP280;58630;43.022;25.100;2022-08-16T02:14:37;98756.50;;;24.78
70969;BMP280;58630;43.022;25.100;2022-08-16T02:17:04;98759.16;;;24.78
70969;BMP280;58630;43.022;25.100;2022-08-16T02:19:32;98754.19;;;24.77
70969;BMP280;58630;43.022;25.100;2022-08-16T02:21:58;98756.13;;;24.76
70969;BMP280;58630;43.022;25.100;2022-08-16T02:24:23;98765.22;;;24.75
70969;BMP280;58630;43.022;25.100;2022-08-16T02:26:49;98762.16;;;24.73
70969;BMP280;58630;43.022;25.100;2022-08-16T02:29:15;98768.63;;;24.73
70969;BMP280;58630;43.022;25.100;2022-08-16T02:31:42;98768.63;;;24.73
70969;BMP280;58630;43.022;25.100;2022-08-16T02:34:07;98770.88;;;24.74
70969;BMP280;58630;43.022;25.100;2022-08-16T02:36:33;98771.66;;;24.74
70969;BMP280;58630;43.022;25.100;2022-08-16T02:38:59;98784.19;;;24.74
70969;BMP280;58630;43.022;25.100;2022-08-16T02:41:24;98784.97;;;24.74
70969;BMP280;58630;43.022;25.100;2022-08-16T02:43:49;98787.97;;;24.73
70969;BMP280;58630;43.022;25.100;2022-08-16T02:46:14;98782.25;;;24.68
70969;BMP280;58630;43.022;25.100;2022-08-16T02:48:40;98787.16;;;24.66
70969;BMP280;58630;43.022;25.100;2022-08-16T02:51:06;98785.63;;;24.65
70969;BMP280;58630;43.022;25.100;2022-08-16T02:53:33;98787.91;;;24.63
70969;BMP280;58630;43.022;25.100;2022-08-16T02:55:59;98781.06;;;24.62
70969;BMP280;58630;43.022;25.100;2022-08-16T02:58:24;98785.97;;;24.56
70969;BMP280;58630;43.022;25.100;2022-08-16T03:00:50;98787.84;;;24.56
70969;BMP280;58630;43.022;25.100;2022-08-16T03:03:16;98784.44;;;24.55
70969;BMP280;58630;43.022;25.100;2022-08-16T03:05:42;98781.38;;;24.53
70969;BMP280;58630;43.022;25.100;2022-08-16T03:08:07;98780.63;;;24.53
70969;BMP280;58630;43.022;25.100;2022-08-16T03:10:33;98793.47;;;24.51
70969;BMP280;58630;43.022;25.100;2022-08-16T03:12:59;98781.31;;;24.50
70969;BMP280;58630;43.022;25.100;2022-08-16T03:15:24;98785.13;;;24.45
70969;BMP280;58630;43.022;25.100;2022-08-16T03:17:49;98789.28;;;24.43
70969;BMP280;58630;43.022;25.100;2022-08-16T03:20:15;98788.50;;;24.42
70969;BMP280;58630;43.022;25.100;2022-08-16T03:22:41;98798.38;;;24.42
70969;BMP280;58630;43.022;25.100;2022-08-16T03:25:08;98794.19;;;24.41
70969;BMP280;58630;43.022;25.100;2022-08-16T03:27:33;98794.94;;;24.41
70969;BMP280;58630;43.022;25.100;2022-08-16T03:30:04;98796.44;;;24.39
70969;BMP280;58630;43.022;25.100;2022-08-16T03:32:30;98797.97;;;24.40
70969;BMP280;58630;43.022;25.100;2022-08-16T03:34:55;98803.28;;;24.40
70969;BMP280;58630;43.022;25.100;2022-08-16T03:37:21;98805.53;;;24.38
70969;BMP280;58630;43.022;25.100;2022-08-16T03:39:46;98812.69;;;24.34
70969;BMP280;58630;43.022;25.100;2022-08-16T03:42:11;98802.44;;;24.32
70969;BMP280;58630;43.022;25.100;2022-08-16T03:44:36;98802.84;;;24.34
70969;BMP280;58630;43.022;25.100;2022-08-16T03:47:02;98801.28;;;24.30
70969;BMP280;58630;43.022;25.100;2022-08-16T03:49:27;98805.09;;;24.29
70969;BMP280;58630;43.022;25.100;2022-08-16T03:51:52;98800.16;;;24.31
70969;BMP280;58630;43.022;25.100;2022-08-16T03:54:18;98799.78;;;24.29
70969;BMP280;58630;43.022;25.100;2022-08-16T03:56:43;98800.13;;;24.27
70969;BMP280;58630;43.022;25.100;2022-08-16T03:59:09;98797.47;;;24.27
70969;BMP280;58630;43.022;25.100;2022-08-16T04:01:34;98811.50;;;24.25
70969;BMP280;58630;43.022;25.100;2022-08-16T04:03:59;98811.88;;;24.26
70969;BMP280;58630;43.022;25.100;2022-08-16T04:06:25;98808.78;;;24.21
70969;BMP280;58630;43.022;25.100;2022-08-16T04:08:50;98812.97;;;24.22
70969;BMP280;58630;43.022;25.100;2022-08-16T04:11:15;98807.97;;;24.17
70969;BMP280;58630;43.022;25.100;2022-08-16T04:13:41;98804.94;;;24.15
70969;BMP280;58630;43.022;25.100;2022-08-16T04:16:07;98809.84;;;24.13
70969;BMP280;58630;43.022;25.100;2022-08-16T04:18:33;98809.47;;;24.11
70969;BMP280;58630;43.022;25.100;2022-08-16T04:21:00;98809.81;;;24.10
70969;BMP280;58630;43.022;25.100;2022-08-16T04:23:26;98812.47;;;24.10
70969;BMP280;58630;43.022;25.100;2022-08-16T04:25:51;98809.81;;;24.10
70969;BMP280;58630;43.022;25.100;2022-08-16T04:28:16;98809.00;;;24.06
70969;BMP280;58630;43.022;25.100;2022-08-16T04:30:42;98813.59;;;24.09
70969;BMP280;58630;43.022;25.100;2022-08-16T04:33:07;98806.00;;;24.07
70969;BMP280;58630;43.022;25.100;2022-08-16T04:35:33;98812.44;;;24.06
70969;BMP280;58630;43.022;25.100;2022-08-16T04:37:58;98814.31;;;24.06
70969;BMP280;58630;43.022;25.100;2022-08-16T04:40:24;98806.00;;;24.07
70969;BMP280;58630;43.022;25.100;2022-08-16T04:42:50;98796.50;;;24.06
70969;BMP280;58630;43.022;25.100;2022-08-16T04:45:16;98809.78;;;24.06
70969;BMP280;58630;43.022;25.100;2022-08-16T04:47:42;98801.44;;;24.04
70969;BMP280;58630;43.022;25.100;2022-08-16T04:50:18;98799.53;;;24.05
70969;BMP280;58630;43.022;25.100;2022-08-16T04:52:45;98804.09;;;24.04
70969;BMP280;58630;43.022;25.100;2022-08-16T04:55:13;98807.84;;;24.03
70969;BMP280;58630;43.022;25.100;2022-08-16T04:57:39;98813.50;;;23.98
70969;BMP280;58630;43.022;25.100;2022-08-16T05:00:11;98817.28;;;23.97
70969;BMP280;58630;43.022;25.100;2022-08-16T05:02:38;98829.00;;;23.96
70969;BMP280;58630;43.022;25.100;2022-08-16T05:05:03;98823.69;;;23.96
70969;BMP280;58630;43.022;25.100;2022-08-16T05:07:28;98821.44;;;23.95
70969;BMP280;58630;43.022;25.100;2022-08-16T05:09:54;98824.78;;;23.92
70969;BMP280;58630;43.022;25.100;2022-08-16T05:12:19;98815.72;;;23.93
70969;BMP280;58630;43.022;25.100;2022-08-16T05:14:44;98812.66;;;23.91
70969;BMP280;58630;43.022;25.100;2022-08-16T05:17:09;98810.41;;;23.93
70969;BMP280;58630;43.022;25.100;2022-08-16T05:19:35;98813.81;;;23.93
70969;BMP280;58630;43.022;25.100;2022-08-16T05:22:00;98814.59;;;23.94
70969;BMP280;58630;43.022;25.100;2022-08-16T05:24:25;98816.84;;;23.95
70969;BMP280;58630;43.022;25.100;2022-08-16T05:26:51;98816.47;;;23.93
70969;BMP280;58630;43.022;25.100;2022-08-16T05:29:16;98811.16;;;23.93
70969;BMP280;58630;43.022;25.100;2022-08-16T05:31:41;98813.06;;;23.93
70969;BMP280;58630;43.022;25.100;2022-08-16T05:34:07;98809.63;;;23.92
70969;BMP280;58630;43.022;25.100;2022-08-16T05:36:32;98804.38;;;23.96
70969;BMP280;58630;43.022;25.100;2022-08-16T05:38:58;98809.69;;;23.96
70969;BMP280;58630;43.022;25.100;2022-08-16T05:41:23;98811.53;;;23.95
70969;BMP280;58630;43.022;25.100;2022-08-16T05:43:49;98808.19;;;23.98
70969;BMP280;58630;43.022;25.100;2022-08-16T05:46:14;98806.69;;;24.01
70969;BMP280;58630;43.022;25.100;2022-08-16T05:48:42;98815.75;;;24.00
70969;BMP280;58630;43.022;25.100;2022-08-16T05:51:08;98810.94;;;23.73
70969;BMP280;58630;43.022;25.100;2022-08-16T05:53:33;98808.81;;;23.56
70969;BMP280;58630;43.022;25.100;2022-08-16T05:55:59;98817.91;;;23.84
70969;BMP280;58630;43.022;25.100;2022-08-16T05:58:24;98830.13;;;23.95
70969;BMP280;58630;43.022;25.100;2022-08-16T06:00:49;98818.06;;;23.98
70969;BMP280;58630;43.022;25.100;2022-08-16T06:03:14;98816.53;;;24.00
70969;BMP280;58630;43.022;25.100;2022-08-16T06:05:40;98823.38;;;24.01
70969;BMP280;58630;43.022;25.100;2022-08-16T06:08:05;98822.66;;;24.04
70969;BMP280;58630;43.022;25.100;2022-08-16T06:10:30;98818.47;;;24.03
70969;BMP280;58630;43.022;25.100;2022-08-16T06:12:55;98818.91;;;24.05
70969;BMP280;58630;43.022;25.100;2022-08-16T06:15:21;98815.09;;;24.06
70969;BMP280;58630;43.022;25.100;2022-08-16T06:17:46;98813.34;;;23.84
70969;BMP280;58630;43.022;25.100;2022-08-16T06:20:13;98806.31;;;24.02
70969;BMP280;58630;43.022;25.100;2022-08-16T06:22:39;98802.56;;;24.07
70969;BMP280;58630;43.022;25.100;2022-08-16T06:25:05;98797.88;;;23.93
70969;BMP280;58630;43.022;25.100;2022-08-16T06:27:30;98802.97;;;24.05
70969;BMP280;58630;43.022;25.100;2022-08-16T06:29:55;98795.03;;;24.09
70969;BMP280;58630;43.022;25.100;2022-08-16T06:32:21;98791.56;;;24.05
70969;BMP280;58630;43.022;25.100;2022-08-16T06:34:46;98803.50;;;23.88
70969;BMP280;58630;43.022;25.100;2022-08-16T06:37:11;98793.84;;;24.06
70969;BMP280;58630;43.022;25.100;2022-08-16T06:39:37;98809.47;;;24.11
70969;BMP280;58630;43.022;25.100;2022-08-16T06:42:02;98799.59;;;24.12
70969;BMP280;58630;43.022;25.100;2022-08-16T06:44:27;98803.75;;;24.13
70969;BMP280;58630;43.022;25.100;2022-08-16T06:46:53;98803.75;;;24.09
70969;BMP280;58630;43.022;25.100;2022-08-16T06:49:18;98803.69;;;24.06
70969;BMP280;58630;43.022;25.100;2022-08-16T06:51:43;98801.84;;;24.10
70969;BMP280;58630;43.022;25.100;2022-08-16T06:54:08;98795.41;;;24.07
70969;BMP280;58630;43.022;25.100;2022-08-16T06:56:34;98774.16;;;24.07
70969;BMP280;58630;43.022;25.100;2022-08-16T06:59:00;98769.25;;;24.09
70969;BMP280;58630;43.022;25.100;2022-08-16T07:01:26;98766.59;;;24.09
70969;BMP280;58630;43.022;25.100;2022-08-16T07:03:51;98773.03;;;24.08
70969;BMP280;58630;43.022;25.100;2022-08-16T07:06:17;98767.72;;;24.08
70969;BMP280;58630;43.022;25.100;2022-08-16T07:08:48;98770.00;;;24.10
70969;BMP280;58630;43.022;25.100;2022-08-16T07:11:14;98774.97;;;24.11
70969;BMP280;58630;43.022;25.100;2022-08-16T07:13:39;98769.66;;;24.11
70969;BMP280;58630;43.022;25.100;2022-08-16T07:16:05;98765.84;;;24.09
70969;BMP280;58630;43.022;25.100;2022-08-16T07:18:31;98770.78;;;24.10
70969;BMP280;58630;43.022;25.100;2022-08-16T07:20:56;98772.25;;;24.08
70969;BMP280;58630;43.022;25.100;2022-08-16T07:23:23;98779.09;;;24.09
70969;BMP280;58630;43.022;25.100;2022-08-16T07:25:48;98779.50;;;24.11
70969;BMP280;58630;43.022;25.100;2022-08-16T07:28:15;98775.69;;;24.08
70969;BMP280;58630;43.022;25.100;2022-08-16T07:30:40;98786.31;;;24.08
70969;BMP280;58630;43.022;25.100;2022-08-16T07:33:06;98787.06;;;24.09
70969;BMP280;58630;43.022;25.100;2022-08-16T07:35:33;98779.84;;;24.09
70969;BMP280;58630;43.022;25.100;2022-08-16T07:37:58;98785.59;;;24.11
70969;BMP280;58630;43.022;25.100;2022-08-16T07:40:24;98793.94;;;24.13
70969;BMP280;58630;43.022;25.100;2022-08-16T07:42:50;98788.66;;;24.17
70969;BMP280;58630;43.022;25.100;2022-08-16T07:45:15;98787.53;;;24.21
70969;BMP280;58630;43.022;25.100;2022-08-16T07:47:41;98790.94;;;24.18
70969;BMP280;58630;43.022;25.100;2022-08-16T07:50:06;98784.50;;;24.19
70969;BMP280;58630;43.022;25.100;2022-08-16T07:52:32;98783.34;;;24.20
70969;BMP280;58630;43.022;25.100;2022-08-16T07:54:58;98791.38;;;24.24
70969;BMP280;58630;43.022;25.100;2022-08-16T07:57:23;98789.84;;;24.26
70969;BMP280;58630;43.022;25.100;2022-08-16T07:59:48;98788.75;;;24.27
70969;BMP280;58630;43.022;25.100;2022-08-16T08:02:14;98787.69;;;24.35
70969;BMP280;58630;43.022;25.100;2022-08-16T08:04:39;98788.50;;;24.39
70969;BMP280;58630;43.022;25.100;2022-08-16T08:07:05;98790.41;;;24.42
70969;BMP280;58630;43.022;25.100;2022-08-16T08:09:30;98782.75;;;24.37
70969;BMP280;58630;43.022;25.100;2022-08-16T08:11:56;98785.91;;;24.46
70969;BMP280;58630;43.022;25.100;2022-08-16T08:14:21;98774.94;;;24.54
70969;BMP280;58630;43.022;25.100;2022-08-16T08:16:46;98774.56;;;24.56
70969;BMP280;58630;43.022;25.100;2022-08-16T08:19:12;98770.75;;;24.57
70969;BMP280;58630;43.022;25.100;2022-08-16T08:21:38;98767.09;;;24.72
70969;BMP280;58630;43.022;25.100;2022-08-16T08:24:05;98772.41;;;24.72
70969;BMP280;58630;43.022;25.100;2022-08-16T08:26:32;98763.28;;;24.69
70969;BMP280;58630;43.022;25.100;2022-08-16T08:28:57;98757.28;;;24.82
70969;BMP280;58630;43.022;25.100;2022-08-16T08:31:22;98759.94;;;24.82
70969;BMP280;58630;43.022;25.100;2022-08-16T08:33:47;98758.78;;;24.76
70969;BMP280;58630;43.022;25.100;2022-08-16T08:36:14;98768.34;;;24.88
70969;BMP280;58630;43.022;25.100;2022-08-16T08:38:40;98780.88;;;24.91
70969;BMP280;58630;43.022;25.100;2022-08-16T08:41:06;98788.44;;;24.85
70969;BMP280;58630;43.022;25.100;2022-08-16T08:43:33;98780.75;;;24.73
70969;BMP280;58630;43.022;25.100;2022-08-16T08:45:59;98775.41;;;24.67
70969;BMP280;58630;43.022;25.100;2022-08-16T08:48:25;98783.38;;;24.67
70969;BMP280;58630;43.022;25.100;2022-08-16T08:50:50;98783.38;;;24.67
70969;BMP280;58630;43.022;25.100;2022-08-16T08:53:16;98779.16;;;24.62
70969;BMP280;58630;43.022;25.100;2022-08-16T08:55:41;98782.97;;;24.61
70969;BMP280;58630;43.022;25.100;2022-08-16T08:58:07;98776.88;;;24.61
70969;BMP280;58630;43.022;25.100;2022-08-16T09:00:32;98781.81;;;24.59
70969;BMP280;58630;43.022;25.100;2022-08-16T09:02:58;98784.03;;;24.57
70969;BMP280;58630;43.022;25.100;2022-08-16T09:05:24;98781.06;;;24.58
70969;BMP280;58630;43.022;25.100;2022-08-16T09:07:52;98779.16;;;24.62
70969;BMP280;58630;43.022;25.100;2022-08-16T09:10:18;98773.88;;;24.66
70969;BMP280;58630;43.022;25.100;2022-08-16T09:12:44;98778.84;;;24.71
70969;BMP280;58630;43.022;25.100;2022-08-16T09:15:11;98778.06;;;24.67
70969;BMP280;58630;43.022;25.100;2022-08-16T09:17:37;98773.53;;;24.71
70969;BMP280;58630;43.022;25.100;2022-08-16T09:20:07;98776.59;;;24.73
70969;BMP280;58630;43.022;25.100;2022-08-16T09:22:33;98778.09;;;24.73
70969;BMP280;58630;43.022;25.100;2022-08-16T09:24:58;98772.41;;;24.75
70969;BMP280;58630;43.022;25.100;2022-08-16T09:27:24;98766.34;;;24.74
70969;BMP280;58630;43.022;25.100;2022-08-16T09:29:50;98761.47;;;24.87
70969;BMP280;58630;43.022;25.100;2022-08-16T09:32:16;98764.16;;;24.94
70969;BMP280;58630;43.022;25.100;2022-08-16T09:34:42;98751.00;;;25.18
70969;BMP280;58630;43.022;25.100;2022-08-16T09:37:07;98744.53;;;25.09
70969;BMP280;58630;43.022;25.100;2022-08-16T09:39:32;98746.75;;;25.03
70969;BMP280;58630;43.022;25.100;2022-08-16T09:41:58;98742.59;;;25.02
70969;BMP280;58630;43.022;25.100;2022-08-16T09:44:25;98745.22;;;24.99
70969;BMP280;58630;43.022;25.100;2022-08-16T09:46:51;98741.44;;;25.03
70969;BMP280;58630;43.022;25.100;2022-08-16T09:49:17;98734.63;;;25.02
70969;BMP280;58630;43.022;25.100;2022-08-16T09:51:45;98732.38;;;25.11
70969;BMP280;58630;43.022;25.100;2022-08-16T09:54:10;98729.44;;;25.44
70969;BMP280;58630;43.022;25.100;2022-08-16T09:56:37;98734.81;;;26.55
70969;BMP280;58630;43.022;25.100;2022-08-16T09:59:04;98724.97;;;26.07
70969;BMP280;58630;43.022;25.100;2022-08-16T10:01:30;98726.13;;;25.85
70969;BMP280;58630;43.022;25.100;2022-08-16T10:03:55;98719.59;;;25.65
70969;BMP280;58630;43.022;25.100;2022-08-16T10:06:21;98718.44;;;25.56
70969;BMP280;58630;43.022;25.100;2022-08-16T10:08:47;98725.31;;;25.57
70969;BMP280;58630;43.022;25.100;2022-08-16T10:11:12;98725.72;;;25.76
70969;BMP280;58630;43.022;25.100;2022-08-16T10:13:56;98728.78;;;25.68
70969;BMP280;58630;43.022;25.100;2022-08-16T10:16:22;98728.75;;;25.81
70969;BMP280;58630;43.022;25.100;2022-08-16T10:18:47;98726.88;;;26.20
70969;BMP280;58630;43.022;25.100;2022-08-16T10:21:12;98719.25;;;26.22
70969;BMP280;58630;43.022;25.100;2022-08-16T10:23:39;98721.16;;;26.01
70969;BMP280;58630;43.022;25.100;2022-08-16T10:26:05;98724.22;;;25.92
70969;BMP280;58630;43.022;25.100;2022-08-16T10:28:30;98722.69;;;25.91
70969;BMP280;58630;43.022;25.100;2022-08-16T10:31:01;98719.66;;;25.96
70969;BMP280;58630;43.022;25.100;2022-08-16T10:33:28;98723.81;;;25.90
70969;BMP280;58630;43.022;25.100;2022-08-16T10:35:53;98720.81;;;26.06
70969;BMP280;58630;43.022;25.100;2022-08-16T10:38:19;98718.50;;;25.97
70969;BMP280;58630;43.022;25.100;2022-08-16T10:40:44;98723.47;;;25.95
70969;BMP280;58630;43.022;25.100;2022-08-16T10:43:10;98723.47;;;25.95
70969;BMP280;58630;43.022;25.100;2022-08-16T10:45:36;98721.56;;;25.92
70969;BMP280;58630;43.022;25.100;2022-08-16T10:48:02;98724.97;;;25.93
70969;BMP280;58630;43.022;25.100;2022-08-16T10:50:28;98717.38;;;25.91
70969;BMP280;58630;43.022;25.100;2022-08-16T10:52:53;98714.72;;;25.98
70969;BMP280;58630;43.022;25.100;2022-08-16T10:55:19;98713.94;;;26.15
70969;BMP280;58630;43.022;25.100;2022-08-16T10:57:44;98715.47;;;26.23
70969;BMP280;58630;43.022;25.100;2022-08-16T11:00:11;98713.91;;;26.25
70969;BMP280;58630;43.022;25.100;2022-08-16T11:02:38;98699.88;;;26.21
70969;BMP280;58630;43.022;25.100;2022-08-16T11:05:04;98700.41;;;26.95
70969;BMP280;58630;43.022;25.100;2022-08-16T11:07:30;98694.75;;;26.82
70969;BMP280;58630;43.022;25.100;2022-08-16T11:09:55;98694.59;;;27.74
70969;BMP280;58630;43.022;25.100;2022-08-16T11:12:22;98685.28;;;28.66
70969;BMP280;58630;43.022;25.100;2022-08-16T11:14:50;98690.81;;;27.72
70969;BMP280;58630;43.022;25.100;2022-08-16T11:17:15;98695.97;;;27.42
70969;BMP280;58630;43.022;25.100;2022-08-16T11:19:41;98688.38;;;27.34
70969;BMP280;58630;43.022;25.100;2022-08-16T11:22:06;98686.44;;;27.45
70969;BMP280;58630;43.022;25.100;2022-08-16T11:24:31;98690.75;;;27.75
70969;BMP280;58630;43.022;25.100;2022-08-16T11:26:57;98685.97;;;28.00
70969;BMP280;58630;43.022;25.100;2022-08-16T11:29:22;98683.44;;;28.89
70969;BMP280;58630;43.022;25.100;2022-08-16T11:31:47;98683.47;;;29.41
70969;BMP280;58630;43.022;25.100;2022-08-16T11:34:14;98679.38;;;29.56
70969;BMP280;58630;43.022;25.100;2022-08-16T11:36:39;98679.72;;;29.35
70969;BMP280;58630;43.022;25.100;2022-08-16T11:39:04;98669.25;;;28.62
70969;BMP280;58630;43.022;25.100;2022-08-16T11:41:30;98669.81;;;28.14
70969;BMP280;58630;43.022;25.100;2022-08-16T11:43:59;98668.28;;;28.13
70969;BMP280;58630;43.022;25.100;2022-08-16T11:46:25;98661.94;;;28.00
70969;BMP280;58630;43.022;25.100;2022-08-16T11:48:51;98670.03;;;28.30
70969;BMP280;58630;43.022;25.100;2022-08-16T11:51:16;98668.41;;;28.02
70969;BMP280;58630;43.022;25.100;2022-08-16T11:53:41;98677.53;;;28.08
70969;BMP280;58630;43.022;25.100;2022-08-16T11:56:07;98661.41;;;28.15
70969;BMP280;58630;43.022;25.100;2022-08-16T11:58:33;98656.66;;;28.33
70969;BMP280;58630;43.022;25.100;2022-08-16T12:00:59;98673.34;;;28.41
70969;BMP280;58630;43.022;25.100;2022-08-16T12:03:26;98668.59;;;28.55
70969;BMP280;58630;43.022;25.100;2022-08-16T12:05:52;98669.53;;;28.71
70969;BMP280;58630;43.022;25.100;2022-08-16T12:08:18;98664.47;;;28.77
70969;BMP280;58630;43.022;25.100;2022-08-16T12:10:43;98658.91;;;28.94
70969;BMP280;58630;43.022;25.100;2022-08-16T12:13:10;98665.69;;;29.02
70969;BMP280;58630;43.022;25.100;2022-08-16T12:15:36;98656.31;;;29.17
70969;BMP280;58630;43.022;25.100;2022-08-16T12:18:01;98654.47;;;29.36
70969;BMP280;58630;43.022;25.100;2022-08-16T12:20:29;98645.09;;;29.48
70969;BMP280;58630;43.022;25.100;2022-08-16T12:22:54;98645.25;;;29.64
70969;BMP280;58630;43.022;25.100;2022-08-16T12:25:20;98655.41;;;29.72
70969;BMP280;58630;43.022;25.100;2022-08-16T12:27:46;98641.91;;;29.79
70969;BMP280;58630;43.022;25.100;2022-08-16T12:30:14;98646.28;;;29.89
70969;BMP280;58630;43.022;25.100;2022-08-16T12:32:40;98648.03;;;29.99
70969;BMP280;58630;43.022;25.100;2022-08-16T12:35:07;98649.28;;;30.14
70969;BMP280;58630;43.022;25.100;2022-08-16T12:37:32;98640.22;;;30.27
70969;BMP280;58630;43.022;25.100;2022-08-16T12:39:58;98636.63;;;30.33
70969;BMP280;58630;43.022;25.100;2022-08-16T12:42:24;98630.69;;;30.42
70969;BMP280;58630;43.022;25.100;2022-08-16T12:44:49;98638.47;;;30.56
70969;BMP280;58630;43.022;25.100;2022-08-16T12:47:15;98643.25;;;30.64
70969;BMP280;58630;43.022;25.100;2022-08-16T12:49:59;98638.94;;;30.86
70969;BMP280;58630;43.022;25.100;2022-08-16T12:52:25;98634.75;;;31.00
70969;BMP280;58630;43.022;25.100;2022-08-16T12:54:52;98632.38;;;31.18
70969;BMP280;58630;43.022;25.100;2022-08-16T12:57:21;98633.81;;;31.39
70969;BMP280;58630;43.022;25.100;2022-08-16T12:59:48;98628.69;;;31.44
70969;BMP280;58630;43.022;25.100;2022-08-16T13:02:13;98633.00;;;31.26
70969;BMP280;58630;43.022;25.100;2022-08-16T13:04:38;98622.16;;;31.29
70969;BMP280;58630;43.022;25.100;2022-08-16T13:07:04;98611.47;;;31.57
70969;BMP280;58630;43.022;25.100;2022-08-16T13:09:30;98613.16;;;31.80
70969;BMP280;58630;43.022;25.100;2022-08-16T13:11:58;98610.22;;;32.02
70969;BMP280;58630;43.022;25.100;2022-08-16T13:14:30;98604.66;;;32.22
70969;BMP280;58630;43.022;25.100;2022-08-16T13:16:57;98613.09;;;32.36
70969;BMP280;58630;43.022;25.100;2022-08-16T13:19:22;98602.53;;;32.54
70969;BMP280;58630;43.022;25.100;2022-08-16T13:21:48;98603.84;;;32.62
70969;BMP280;58630;43.022;25.100;2022-08-16T13:24:13;98600.63;;;32.66
70969;BMP280;58630;43.022;25.100;2022-08-16T13:26:38;98609.19;;;32.86
70969;BMP280;58630;43.022;25.100;2022-08-16T13:29:06;98608.09;;;32.96
70969;BMP280;58630;43.022;25.100;2022-08-16T13:31:31;98601.44;;;32.88
70969;BMP280;58630;43.022;25.100;2022-08-16T13:33:57;98611.00;;;33.02
70969;BMP280;58630;43.022;25.100;2022-08-16T13:36:22;98602.34;;;33.19
70969;BMP280;58630;43.022;25.100;2022-08-16T13:38:48;98610.81;;;33.30
70969;BMP280;58630;43.022;25.100;2022-08-16T13:41:13;98597.72;;;33.41
70969;BMP280;58630;43.022;25.100;2022-08-16T13:43:38;98601.38;;;33.46
70969;BMP280;58630;43.022;25.100;2022-08-16T13:46:04;98602.72;;;33.63
70969;BMP280;58630;43.022;25.100;2022-08-16T13:48:31;98597.56;;;33.78
70969;BMP280;58630;43.022;25.100;2022-08-16T13:50:56;98593.94;;;34.02
70969;BMP280;58630;43.022;25.100;2022-08-16T13:53:23;98597.88;;;34.10